Time;durP1;ratioP1;P1;durP2;ratioP2;P2;SDS_P1;SDS_P2;PMS_P1;PMS_P2;Temp;Humidity;BMP_temperature;BMP_pressure;BME280_temperature;BME280_humidity;BME280_pressure;Samples;Min_cycle;Max_cycle;Signal;HPM_P1;HPM_P2
2021/07/28 00:01:17;;;;;;;18.70;13.68;;;;;;;;;;4918097;29;20084;-65
2021/07/28 00:03:44;;;;;;;16.58;13.32;;;;;;;;;;4916765;29;20082;-65
2021/07/28 00:06:26;;;;;;;18.25;14.00;;;;;;;;;;4917991;29;20083;-65
2021/07/28 00:08:53;;;;;;;16.95;12.98;;;;;;;;;;4917766;29;20190;-65
2021/07/28 00:11:20;;;;;;;16.95;14.00;;;;;;;;;;4917954;29;20086;-65
2021/07/28 00:13:46;;;;;;;18.00;13.70;;;;;;;;;;4917497;29;20087;-65
2021/07/28 00:16:14;;;;;;;17.98;13.82;;;;;;;;;;4917879;29;20052;-66
2021/07/28 00:24:05;;;;;;;17.33;13.38;;;;;;;;;;4917326;29;20056;-65
2021/07/28 00:26:32;;;;;;;20.20;14.80;;;;;;;;;;4917452;29;20144;-65
2021/07/28 00:28:59;;;;;;;18.20;13.90;;;;;;;;;;4917080;29;20112;-66
2021/07/28 00:31:25;;;;;;;21.08;13.40;;;;;;;;;;4917537;29;20079;-65
2021/07/28 00:33:52;;;;;;;19.40;13.52;;;;;;;;;;4917126;29;20083;-65
2021/07/28 00:36:19;;;;;;;20.75;14.32;;;;;;;;;;4917547;29;20115;-65
2021/07/28 00:38:45;;;;;;;18.30;12.50;;;;;;;;;;4917024;29;20084;-65
2021/07/28 00:41:13;;;;;;;17.90;14.10;;;;;;;;;;4917372;29;20483;-65
2021/07/28 00:43:40;;;;;;;20.38;14.32;;;;;;;;;;4916565;29;20278;-65
2021/07/28 00:46:06;;;;;;;16.25;13.63;;;;;;;;;;4898146;29;20095;-65
2021/07/28 00:48:34;;;;;;;20.67;13.43;;;;;;;;;;4897746;29;20535;-65
2021/07/28 00:51:00;;;;;;;17.20;13.25;;;;;;;;;;4898370;29;20099;-66
2021/07/28 00:53:27;;;;;;;21.08;15.00;;;;;;;;;;4898276;29;20052;-66
2021/07/28 00:55:55;;;;;;;17.25;13.95;;;;;;;;;;4881638;29;20084;-65
2021/07/28 00:58:21;;;;;;;19.67;14.65;;;;;;;;;;4898129;29;20128;-66
2021/07/28 01:00:48;;;;;;;20.35;14.80;;;;;;;;;;4897856;29;20131;-66
2021/07/28 01:03:15;;;;;;;16.48;13.15;;;;;;;;;;4897841;29;20100;-66
2021/07/28 01:05:42;;;;;;;17.15;14.00;;;;;;;;;;4897706;29;20048;-66
2021/07/28 01:08:09;;;;;;;18.00;14.38;;;;;;;;;;4896777;29;20076;-66
2021/07/28 01:10:36;;;;;;;18.20;13.65;;;;;;;;;;4899306;29;20486;-66
2021/07/28 01:13:04;;;;;;;20.40;13.25;;;;;;;;;;4916571;29;20411;-65
2021/07/28 01:15:40;;;;;;;17.75;14.05;;;;;;;;;;4916652;29;20056;-66
2021/07/28 01:18:13;;;;;;;18.60;14.90;;;;;;;;;;4916474;29;20475;-65
2021/07/28 01:20:41;;;;;;;;;;;;;;;;;;4916824;29;20087;-66
2021/07/28 01:23:20;;;;;;;18.55;13.30;;;;;;;;;;4916391;29;19930;-66
2021/07/28 01:25:47;;;;;;;16.15;12.63;;;;;;;;;;4915200;29;20151;-66
2021/07/28 01:28:14;;;;;;;17.30;13.60;;;;;;;;;;4916180;29;20423;-65
2021/07/28 01:30:40;;;;;;;18.08;13.77;;;;;;;;;;4916854;29;20091;-66
2021/07/28 01:33:07;;;;;;;16.95;13.27;;;;;;;;;;4899325;29;20048;-66
2021/07/28 01:35:35;;;;;;;16.17;12.73;;;;;;;;;;4915067;29;20080;-65
2021/07/28 01:38:03;;;;;;;20.10;12.60;;;;;;;;;;4916187;29;20079;-65
2021/07/28 01:40:29;;;;;;;17.55;14.00;;;;;;;;;;4916096;29;20076;-66
2021/07/28 01:42:56;;;;;;;19.10;13.77;;;;;;;;;;4916076;29;20098;-66
2021/07/28 01:45:22;;;;;;;18.05;13.75;;;;;;;;;;4908420;29;20080;-66
2021/07/28 01:47:49;;;;;;;17.63;14.57;;;;;;;;;;4897099;29;20205;-66
2021/07/28 01:50:16;;;;;;;18.15;13.68;;;;;;;;;;4897027;29;20088;-66
2021/07/28 01:52:42;;;;;;;20.25;13.18;;;;;;;;;;4896837;29;20499;-65
2021/07/28 01:55:09;;;;;;;17.70;14.38;;;;;;;;;;4897214;29;20136;-66
2021/07/28 01:57:52;;;;;;;19.58;13.27;;;;;;;;;;4896932;29;20048;-65
2021/07/28 02:00:19;;;;;;;17.67;13.23;;;;;;;;;;4896304;29;20089;-66
2021/07/28 02:02:46;;;;;;;21.85;14.50;;;;;;;;;;4896754;29;20513;-65
2021/07/28 02:05:13;;;;;;;18.75;13.82;;;;;;;;;;4896119;29;20052;-65
2021/07/28 02:07:39;;;;;;;16.70;13.63;;;;;;;;;;4896674;29;20049;-65
2021/07/28 02:10:06;;;;;;;18.42;13.48;;;;;;;;;;4896934;29;20131;-65
2021/07/28 02:12:33;;;;;;;18.13;13.95;;;;;;;;;;4896527;29;20056;-65
2021/07/28 02:14:59;;;;;;;18.90;13.68;;;;;;;;;;4910164;29;20570;-65
2021/07/28 02:17:26;;;;;;;15.38;11.02;;;;;;;;;;4915559;29;20468;-65
2021/07/28 02:19:53;;;;;;;10.85;7.85;;;;;;;;;;4914703;29;20083;-65
2021/07/28 02:22:19;;;;;;;8.68;7.60;;;;;;;;;;4915398;29;20103;-66
2021/07/28 02:24:46;;;;;;;9.70;7.93;;;;;;;;;;4898552;29;20056;-65
2021/07/28 02:27:12;;;;;;;8.38;7.43;;;;;;;;;;4896689;29;20076;-66
2021/07/28 02:29:39;;;;;;;9.32;8.30;;;;;;;;;;4897100;29;20511;-64
2021/07/28 02:32:06;;;;;;;10.93;7.78;;;;;;;;;;4896715;29;20088;-64
2021/07/28 02:34:32;;;;;;;10.80;7.50;;;;;;;;;;4896698;29;20057;-64
2021/07/28 02:36:59;;;;;;;8.73;7.68;;;;;;;;;;4915691;29;20056;-65
2021/07/28 02:39:26;;;;;;;8.65;7.43;;;;;;;;;;4915444;29;20084;-65
2021/07/28 02:41:52;;;;;;;8.80;7.90;;;;;;;;;;4915469;29;20086;-65
2021/07/28 02:44:19;;;;;;;9.07;7.95;;;;;;;;;;4915209;29;20094;-64
2021/07/28 02:46:45;;;;;;;8.50;7.68;;;;;;;;;;4915299;29;20135;-65
2021/07/28 02:49:12;;;;;;;8.93;8.02;;;;;;;;;;4915348;29;20426;-65
2021/07/28 02:51:38;;;;;;;8.98;8.05;;;;;;;;;;4915454;29;20094;-65
2021/07/28 02:54:06;;;;;;;8.35;7.38;;;;;;;;;;4915017;29;20527;-65
2021/07/28 02:56:32;;;;;;;9.27;7.93;;;;;;;;;;4915304;29;20084;-65
2021/07/28 02:58:59;;;;;;;10.23;7.90;;;;;;;;;;4910629;29;20080;-64
2021/07/28 03:01:25;;;;;;;9.80;8.23;;;;;;;;;;4896706;29;20125;-64
2021/07/28 03:03:52;;;;;;;9.98;8.90;;;;;;;;;;4896201;29;20795;-64
2021/07/28 03:06:19;;;;;;;11.23;8.63;;;;;;;;;;4896470;29;20084;-64
2021/07/28 03:08:45;;;;;;;9.68;8.07;;;;;;;;;;4896096;29;20550;-64
2021/07/28 03:11:12;;;;;;;10.25;8.98;;;;;;;;;;4897342;29;20108;-64
2021/07/28 03:13:38;;;;;;;11.48;8.88;;;;;;;;;;4899744;29;20080;-64
2021/07/28 03:16:06;;;;;;;9.57;8.57;;;;;;;;;;4900122;29;20052;-64
2021/07/28 03:18:33;;;;;;;9.93;8.07;;;;;;;;;;4899673;29;20567;-64
2021/07/28 03:20:59;;;;;;;10.48;8.45;;;;;;;;;;4902586;29;20055;-64
2021/07/28 03:23:26;;;;;;;11.38;8.60;;;;;;;;;;4899521;29;20504;-64
2021/07/28 03:25:52;;;;;;;11.10;8.88;;;;;;;;;;4899558;29;20500;-64
2021/07/28 03:28:19;;;;;;;12.65;9.25;;;;;;;;;;4899735;29;20084;-65
2021/07/28 03:30:45;;;;;;;15.23;9.82;;;;;;;;;;4899570;29;20076;-64
2021/07/28 03:33:12;;;;;;;12.95;10.73;;;;;;;;;;4899629;29;20088;-64
2021/07/28 03:35:38;;;;;;;13.48;9.98;;;;;;;;;;4899556;29;20052;-64
2021/07/28 03:38:05;;;;;;;14.60;10.85;;;;;;;;;;4899403;29;20076;-64
2021/07/28 03:40:31;;;;;;;20.23;13.65;;;;;;;;;;4899342;29;20098;-65
2021/07/28 03:42:58;;;;;;;19.88;13.60;;;;;;;;;;4916150;29;20090;-64
2021/07/28 03:45:24;;;;;;;18.88;11.85;;;;;;;;;;4918224;29;20083;-64
2021/07/28 03:47:51;;;;;;;15.25;11.93;;;;;;;;;;4917958;29;20139;-64
2021/07/28 03:50:18;;;;;;;17.05;11.60;;;;;;;;;;4918090;29;20056;-64
2021/07/28 03:52:44;;;;;;;16.58;11.57;;;;;;;;;;4917210;29;20075;-65
2021/07/28 03:55:11;;;;;;;15.90;10.73;;;;;;;;;;4898053;29;20084;-64
2021/07/28 03:57:38;;;;;;;16.42;11.75;;;;;;;;;;4899167;29;20095;-63
2021/07/28 04:00:05;;;;;;;14.90;11.52;;;;;;;;;;4899542;29;20088;-64
2021/07/28 04:02:32;;;;;;;18.63;12.82;;;;;;;;;;4901647;29;20086;-64
2021/07/28 04:04:59;;;;;;;14.48;11.10;;;;;;;;;;4918042;29;20060;-64
2021/07/28 04:07:25;;;;;;;17.35;11.98;;;;;;;;;;4917699;29;20475;-63
2021/07/28 04:09:53;;;;;;;15.25;11.82;;;;;;;;;;4917799;29;20475;-64
2021/07/28 04:12:19;;;;;;;18.27;11.70;;;;;;;;;;4905644;29;20048;-64
2021/07/28 04:14:46;;;;;;;16.58;12.43;;;;;;;;;;4898933;29;20084;-64
2021/07/28 04:17:13;;;;;;;14.20;11.15;;;;;;;;;;4899022;29;20045;-63
2021/07/28 04:19:43;;;;;;;18.65;12.13;;;;;;;;;;4897202;29;20076;-64
2021/07/28 04:22:09;;;;;;;15.13;12.27;;;;;;;;;;4898159;29;20076;-64
2021/07/28 04:24:37;;;;;;;18.13;11.70;;;;;;;;;;4898062;29;20052;-64
2021/07/28 04:27:04;;;;;;;16.85;11.90;;;;;;;;;;4887858;29;20116;-63
2021/07/28 04:29:30;;;;;;;13.60;10.82;;;;;;;;;;4889255;29;20053;-64
2021/07/28 04:31:57;;;;;;;14.00;11.35;;;;;;;;;;4887246;29;20052;-64
2021/07/28 04:34:23;;;;;;;16.23;12.05;;;;;;;;;;4895111;29;20480;-64
2021/07/28 04:36:50;;;;;;;16.50;12.30;;;;;;;;;;4885851;29;20131;-64
2021/07/28 04:39:16;;;;;;;15.40;12.07;;;;;;;;;;4917266;29;20441;-64
2021/07/28 04:41:43;;;;;;;18.05;12.10;;;;;;;;;;4917252;29;20192;-64
2021/07/28 04:44:09;;;;;;;13.25;10.85;;;;;;;;;;4917223;29;20563;-64
2021/07/28 04:46:36;;;;;;;13.98;11.38;;;;;;;;;;4907768;29;20048;-64
2021/07/28 04:49:03;;;;;;;15.93;11.95;;;;;;;;;;4898084;29;20052;-64
2021/07/28 04:51:29;;;;;;;14.52;11.70;;;;;;;;;;4898184;29;20083;-64
2021/07/28 04:53:56;;;;;;;15.63;11.45;;;;;;;;;;4898041;29;20092;-65
2021/07/28 04:56:22;;;;;;;13.93;10.63;;;;;;;;;;4898370;29;20088;-66
2021/07/28 04:58:49;;;;;;;11.45;10.25;;;;;;;;;;4907218;29;20048;-64
2021/07/28 05:01:15;;;;;;;12.15;10.50;;;;;;;;;;4905191;29;20053;-65
2021/07/28 05:03:43;;;;;;;13.32;9.95;;;;;;;;;;4915883;29;20055;-65
2021/07/28 05:06:09;;;;;;;12.45;10.52;;;;;;;;;;4916681;29;20094;-65
2021/07/28 05:08:36;;;;;;;12.75;10.27;;;;;;;;;;4916261;29;20127;-65
2021/07/28 05:11:02;;;;;;;12.63;10.68;;;;;;;;;;4917112;29;20075;-65
2021/07/28 05:13:29;;;;;;;13.07;9.95;;;;;;;;;;4916413;29;20076;-65
2021/07/28 05:15:55;;;;;;;13.20;9.73;;;;;;;;;;4916445;29;20143;-65
2021/07/28 05:18:22;;;;;;;12.75;9.95;;;;;;;;;;4916357;29;20087;-64
2021/07/28 05:20:48;;;;;;;10.27;9.07;;;;;;;;;;4916185;29;20076;-64
2021/07/28 05:23:15;;;;;;;11.77;9.35;;;;;;;;;;4915927;29;20075;-64
2021/07/28 05:25:41;;;;;;;10.57;9.23;;;;;;;;;;4914226;29;20091;-64
2021/07/28 05:28:08;;;;;;;9.75;8.52;;;;;;;;;;4897226;29;20135;-66
2021/07/28 05:30:35;;;;;;;10.77;8.27;;;;;;;;;;4896633;29;20080;-65
2021/07/28 05:33:01;;;;;;;9.95;8.60;;;;;;;;;;4894871;29;20091;-65
2021/07/28 05:35:28;;;;;;;8.30;7.50;;;;;;;;;;4894496;29;20099;-65
2021/07/28 05:38:01;;;;;;;9.35;7.70;;;;;;;;;;4895092;29;20144;-65
2021/07/28 05:40:28;;;;;;;8.40;7.28;;;;;;;;;;4895656;29;20150;-65
2021/07/28 05:42:55;;;;;;;8.77;7.88;;;;;;;;;;4894941;29;20147;-65
2021/07/28 05:45:21;;;;;;;9.80;8.35;;;;;;;;;;4895015;29;20492;-65
2021/07/28 05:47:48;;;;;;;10.65;7.90;;;;;;;;;;4901508;29;20229;-65
2021/07/28 05:50:15;;;;;;;10.35;8.88;;;;;;;;;;4914025;29;20146;-65
2021/07/28 05:52:42;;;;;;;10.35;8.88;;;;;;;;;;4914372;29;20586;-65
2021/07/28 05:55:09;;;;;;;9.93;8.15;;;;;;;;;;4913976;29;20138;-65
2021/07/28 05:57:36;;;;;;;9.48;8.43;;;;;;;;;;4900018;29;20494;-67
2021/07/28 06:00:03;;;;;;;11.02;8.43;;;;;;;;;;4903664;29;20737;-65
2021/07/28 06:02:30;;;;;;;11.02;8.77;;;;;;;;;;4894710;29;20087;-65
2021/07/28 06:04:57;;;;;;;8.38;7.47;;;;;;;;;;4894796;29;20056;-65
2021/07/28 06:07:24;;;;;;;9.55;7.28;;;;;;;;;;4894838;29;20088;-66
2021/07/28 06:09:51;;;;;;;8.95;7.65;;;;;;;;;;4892566;29;20472;-65
2021/07/28 06:12:18;;;;;;;8.82;7.78;;;;;;;;;;4878722;29;20133;-65
2021/07/28 06:14:45;;;;;;;8.57;7.68;;;;;;;;;;4882845;29;20057;-64
2021/07/28 06:17:12;;;;;;;11.32;7.10;;;;;;;;;;4876506;29;20084;-64
2021/07/28 06:19:39;;;;;;;8.95;7.75;;;;;;;;;;4875623;29;20144;-65
2021/07/28 06:22:06;;;;;;;10.30;7.55;;;;;;;;;;4876220;29;20093;-65
2021/07/28 06:24:32;;;;;;;9.55;7.85;;;;;;;;;;4875496;29;20140;-64
2021/07/28 06:26:59;;;;;;;9.50;7.32;;;;;;;;;;4875953;29;20160;-65
2021/07/28 06:29:26;;;;;;;8.48;7.18;;;;;;;;;;4874712;29;20091;-64
2021/07/28 06:32:05;;;;;;;8.70;6.97;;;;;;;;;;4880895;29;20057;-64
2021/07/28 06:34:32;;;;;;;13.07;7.38;;;;;;;;;;4913527;29;20146;-64
2021/07/28 06:36:58;;;;;;;7.72;6.57;;;;;;;;;;4912840;29;20099;-65
2021/07/28 06:39:26;;;;;;;8.07;7.28;;;;;;;;;;4913310;29;20083;-66
2021/07/28 06:41:52;;;;;;;7.88;7.10;;;;;;;;;;4915348;29;20091;-63
2021/07/28 06:44:19;;;;;;;8.88;7.43;;;;;;;;;;4915401;29;20457;-65
2021/07/28 06:46:45;;;;;;;8.70;7.60;;;;;;;;;;4916622;29;20088;-65
2021/07/28 06:49:12;;;;;;;10.35;8.57;;;;;;;;;;4917608;29;20113;-65
2021/07/28 06:51:38;;;;;;;10.60;7.72;;;;;;;;;;4917597;29;20148;-64
2021/07/28 06:54:05;;;;;;;10.23;7.80;;;;;;;;;;4918927;29;20204;-65
2021/07/28 06:56:31;;;;;;;13.82;8.90;;;;;;;;;;4919095;29;20087;-65
2021/07/28 06:58:58;;;;;;;12.45;8.52;;;;;;;;;;4918778;29;20087;-65
2021/07/28 07:01:24;;;;;;;12.38;8.93;;;;;;;;;;4918966;29;20087;-65
2021/07/28 07:03:51;;;;;;;12.25;8.38;;;;;;;;;;4918810;29;20448;-66
2021/07/28 07:06:24;;;;;;;11.13;7.90;;;;;;;;;;4919185;29;20056;-65
2021/07/28 07:08:50;;;;;;;12.15;9.40;;;;;;;;;;4910456;29;20084;-65
2021/07/28 07:11:17;;;;;;;13.48;10.85;;;;;;;;;;4900160;29;20309;-65
2021/07/28 07:13:43;;;;;;;12.18;9.55;;;;;;;;;;4899891;29;20048;-64
2021/07/28 07:16:10;;;;;;;13.10;10.52;;;;;;;;;;4899954;29;20068;-66
2021/07/28 07:18:36;;;;;;;13.38;8.65;;;;;;;;;;4899532;29;20559;-65
2021/07/28 07:21:03;;;;;;;11.98;8.98;;;;;;;;;;4911561;29;20092;-65
2021/07/28 07:23:29;;;;;;;8.73;7.70;;;;;;;;;;4918371;29;20086;-64
2021/07/28 07:25:58;;;;;;;9.70;7.22;;;;;;;;;;4918715;29;20546;-65
2021/07/28 07:28:25;;;;;;;9.07;7.40;;;;;;;;;;4918172;29;20515;-64
2021/07/28 07:30:53;;;;;;;9.32;7.72;;;;;;;;;;4918456;29;20056;-65
2021/07/28 07:33:39;;;;;;;10.57;7.38;;;;;;;;;;4918435;29;20468;-65
2021/07/28 07:36:07;;;;;;;10.82;7.55;;;;;;;;;;4918313;29;20492;-65
2021/07/28 07:38:34;;;;;;;11.52;8.23;;;;;;;;;;4918319;29;20086;-64
2021/07/28 07:41:01;;;;;;;9.98;8.25;;;;;;;;;;4918285;29;20084;-64
2021/07/28 07:43:27;;;;;;;9.48;7.90;;;;;;;;;;4918162;29;20080;-65
2021/07/28 07:45:55;;;;;;;9.98;6.75;;;;;;;;;;4918001;29;20092;-64
2021/07/28 07:48:23;;;;;;;9.48;6.75;;;;;;;;;;4931881;29;20051;-65
2021/07/28 07:50:50;;;;;;;9.90;7.28;;;;;;;;;;4918030;29;20312;-65
2021/07/28 07:53:17;;;;;;;10.00;6.75;;;;;;;;;;4917418;29;20052;-65
2021/07/28 07:55:44;;;;;;;9.05;7.18;;;;;;;;;;4917954;29;20435;-65
2021/07/28 07:58:11;;;;;;;9.35;6.30;;;;;;;;;;4916987;29;20080;-65
2021/07/28 08:00:37;;;;;;;7.20;6.50;;;;;;;;;;4917769;29;20127;-65
2021/07/28 08:03:04;;;;;;;7.57;5.57;;;;;;;;;;4917915;29;20151;-65
2021/07/28 08:05:32;;;;;;;6.50;5.38;;;;;;;;;;4917818;29;20054;-65
2021/07/28 08:07:58;;;;;;;7.72;5.50;;;;;;;;;;4914510;29;20104;-64
2021/07/28 08:10:25;;;;;;;5.78;5.18;;;;;;;;;;4910752;29;20578;-64
2021/07/28 08:12:52;;;;;;;6.93;5.22;;;;;;;;;;4917502;29;20519;-65
2021/07/28 08:15:18;;;;;;;8.13;5.68;;;;;;;;;;4917832;29;20197;-66
2021/07/28 08:17:45;;;;;;;7.85;5.80;;;;;;;;;;4917493;29;20083;-65
2021/07/28 08:20:12;;;;;;;9.10;6.10;;;;;;;;;;4917421;29;20606;-65
2021/07/28 08:22:38;;;;;;;8.70;6.00;;;;;;;;;;4916136;29;20084;-65
2021/07/28 08:25:05;;;;;;;8.10;6.05;;;;;;;;;;4917900;29;20159;-65
2021/07/28 08:27:32;;;;;;;7.18;5.88;;;;;;;;;;4917294;29;20052;-65
2021/07/28 08:29:58;;;;;;;8.98;6.75;;;;;;;;;;4917789;29;20102;-65
2021/07/28 08:32:25;;;;;;;6.22;5.63;;;;;;;;;;4898800;29;20336;-65
2021/07/28 08:34:51;;;;;;;9.65;6.63;;;;;;;;;;4898391;29;20084;-64
2021/07/28 08:37:18;;;;;;;8.63;6.22;;;;;;;;;;4898566;29;20049;-65
2021/07/28 08:39:44;;;;;;;9.70;6.40;;;;;;;;;;4898240;29;20076;-65
2021/07/28 08:42:11;;;;;;;6.65;5.18;;;;;;;;;;4898355;29;20326;-64
2021/07/28 08:44:39;;;;;;;7.95;5.45;;;;;;;;;;4896394;29;20087;-65
2021/07/28 08:47:06;;;;;;;6.95;5.55;;;;;;;;;;4898065;29;20504;-65
2021/07/28 08:49:33;;;;;;;6.03;5.30;;;;;;;;;;4897488;29;20083;-65
2021/07/28 08:52:00;;;;;;;8.55;5.40;;;;;;;;;;4896209;29;20135;-66
2021/07/28 08:54:27;;;;;;;8.15;5.53;;;;;;;;;;4896842;29;20057;-66
2021/07/28 08:56:54;;;;;;;5.75;5.20;;;;;;;;;;4879751;29;20056;-66
2021/07/28 08:59:25;;;;;;;9.00;5.60;;;;;;;;;;4889566;29;20080;-64
2021/07/28 09:01:53;;;;;;;8.43;5.32;;;;;;;;;;4905491;29;20086;-64
2021/07/28 09:04:20;;;;;;;6.90;4.97;;;;;;;;;;4903553;29;20099;-70
2021/07/28 09:06:47;;;;;;;8.40;5.35;;;;;;;;;;4914816;29;20485;-67
2021/07/28 09:09:13;;;;;;;6.03;4.82;;;;;;;;;;4927400;29;20028;-74
2021/07/28 09:12:00;;;;;;;7.95;5.05;;;;;;;;;;4928718;29;20036;-75
2021/07/28 09:14:30;;;;;;;8.45;5.53;;;;;;;;;;4933009;29;20028;-70
2021/07/28 09:17:18;;;;;;;7.78;5.50;;;;;;;;;;4928543;29;20040;-69
2021/07/28 09:19:48;;;;;;;6.20;5.60;;;;;;;;;;4925016;29;20050;-67
2021/07/28 09:22:32;;;;;;;6.70;4.60;;;;;;;;;;4931422;29;20092;-70
2021/07/28 09:25:15;;;;;;;6.32;4.75;;;;;;;;;;4927917;29;20079;-70
2021/07/28 09:27:44;;;;;;;7.38;4.63;;;;;;;;;;4921792;29;20048;-71
2021/07/28 09:30:15;;;;;;;4.90;4.25;;;;;;;;;;4926826;29;20052;-69
2021/07/28 09:32:55;;;;;;;6.95;4.57;;;;;;;;;;4927305;29;20032;-69
2021/07/28 09:35:42;;;;;;;5.88;4.63;;;;;;;;;;4925868;29;20076;-73
2021/07/28 09:38:08;;;;;;;4.68;4.18;;;;;;;;;;4930314;29;20056;-70
2021/07/28 09:40:35;;;;;;;4.95;3.88;;;;;;;;;;4932786;29;20052;-71
2021/07/28 09:43:05;;;;;;;5.32;4.20;;;;;;;;;;4928748;29;20040;-70
2021/07/28 09:45:31;;;;;;;6.18;4.13;;;;;;;;;;4929714;29;20063;-73
2021/07/28 09:47:58;;;;;;;6.43;4.32;;;;;;;;;;4932615;29;20047;-70
2021/07/28 09:50:25;;;;;;;6.65;3.90;;;;;;;;;;4910039;29;20029;-71
2021/07/28 09:53:06;;;;;;;5.25;4.03;;;;;;;;;;4912398;29;20083;-69
2021/07/28 09:55:33;;;;;;;5.88;4.63;;;;;;;;;;4926459;29;20036;-71
2021/07/28 09:58:00;;;;;;;4.78;3.70;;;;;;;;;;4920491;29;20071;-65
2021/07/28 10:00:28;;;;;;;5.97;4.07;;;;;;;;;;4911369;29;20052;-66
2021/07/28 10:03:00;;;;;;;4.75;4.20;;;;;;;;;;4908156;29;20056;-65
2021/07/28 10:05:32;;;;;;;6.05;4.10;;;;;;;;;;4917587;29;20136;-70
2021/07/28 10:08:00;;;;;;;5.55;4.15;;;;;;;;;;4911559;29;20059;-71
2021/07/28 10:10:27;;;;;;;5.88;3.85;;;;;;;;;;4896293;29;20099;-69
2021/07/28 10:12:54;;;;;;;7.30;3.60;;;;;;;;;;4923095;29;20056;-70
2021/07/28 10:15:20;;;;;;;4.47;3.50;;;;;;;;;;4926257;29;20047;-70
2021/07/28 10:17:47;;;;;;;6.07;3.67;;;;;;;;;;4931933;29;20051;-71
2021/07/28 10:20:14;;;;;;;5.63;3.47;;;;;;;;;;4926855;29;20065;-68
2021/07/28 10:22:42;;;;;;;5.07;3.85;;;;;;;;;;4922054;29;20048;-70
2021/07/28 10:25:16;;;;;;;4.05;3.65;;;;;;;;;;4928169;29;20064;-71
2021/07/28 10:27:44;;;;;;;4.57;3.28;;;;;;;;;;4932216;29;20036;-72
2021/07/28 10:30:15;;;;;;;4.60;3.65;;;;;;;;;;4917292;29;20420;-65
2021/07/28 10:32:44;;;;;;;3.95;3.35;;;;;;;;;;4914483;29;20056;-65
2021/07/28 10:35:28;;;;;;;5.55;3.55;;;;;;;;;;4916723;29;20071;-67
2021/07/28 10:38:03;;;;;;;4.22;3.28;;;;;;;;;;4920659;29;20108;-71
2021/07/28 10:40:32;;;;;;;3.83;3.35;;;;;;;;;;4930423;29;20061;-73
2021/07/28 10:43:02;;;;;;;3.25;2.95;;;;;;;;;;4920767;29;20077;-67
2021/07/28 10:45:51;;;;;;;3.70;3.30;;;;;;;;;;4925957;29;20035;-66
2021/07/28 10:48:36;;;;;;;3.75;3.40;;;;;;;;;;4923634;29;20079;-67
2021/07/28 10:51:03;;;;;;;7.53;3.53;;;;;;;;;;4908580;29;20550;-68
2021/07/28 10:53:46;;;;;;;5.88;3.30;;;;;;;;;;4903275;29;20049;-66
2021/07/28 10:56:12;;;;;;;5.03;3.28;;;;;;;;;;4904156;29;20095;-65
2021/07/28 10:58:39;;;;;;;5.90;3.33;;;;;;;;;;4906882;29;20076;-66
2021/07/28 11:01:05;;;;;;;4.90;3.20;;;;;;;;;;4902866;29;20057;-65
2021/07/28 11:03:33;;;;;;;6.43;3.40;;;;;;;;;;4905690;29;20056;-66
2021/07/28 11:06:14;;;;;;;8.13;3.78;;;;;;;;;;4906289;29;20067;-66
2021/07/28 11:08:41;;;;;;;5.25;3.28;;;;;;;;;;4903545;29;20059;-65
2021/07/28 11:11:08;;;;;;;3.38;3.08;;;;;;;;;;4907712;29;20103;-65
2021/07/28 11:13:34;;;;;;;4.13;3.10;;;;;;;;;;4902825;29;20424;-68
2021/07/28 11:16:02;;;;;;;5.38;3.10;;;;;;;;;;4907431;29;20139;-67
2021/07/28 11:18:50;;;;;;;4.22;3.40;;;;;;;;;;4906618;29;20104;-66
2021/07/28 11:21:22;;;;;;;3.60;3.10;;;;;;;;;;4906598;29;20053;-66
2021/07/28 11:23:49;;;;;;;6.55;3.60;;;;;;;;;;4906397;29;20048;-65
2021/07/28 11:26:18;;;;;;;4.15;3.72;;;;;;;;;;4906965;29;20088;-66
2021/07/28 11:28:45;;;;;;;4.28;3.47;;;;;;;;;;4905445;29;20065;-66
2021/07/28 11:31:12;;;;;;;5.72;3.92;;;;;;;;;;4908380;29;20064;-66
2021/07/28 11:33:39;;;;;;;3.95;3.28;;;;;;;;;;4907583;29;20045;-67
2021/07/28 11:36:06;;;;;;;4.40;3.17;;;;;;;;;;4908337;29;20511;-65
2021/07/28 11:38:37;;;;;;;3.90;3.50;;;;;;;;;;4907691;29;20567;-65
2021/07/28 11:41:10;;;;;;;4.57;3.63;;;;;;;;;;4911477;29;20542;-65
2021/07/28 11:43:40;;;;;;;4.00;3.53;;;;;;;;;;4908194;29;20048;-65
2021/07/28 11:46:17;;;;;;;5.53;3.33;;;;;;;;;;4906363;29;20091;-66
2021/07/28 11:48:46;;;;;;;4.75;3.45;;;;;;;;;;4901795;29;20127;-66
2021/07/28 11:51:27;;;;;;;4.95;3.92;;;;;;;;;;4907043;29;20147;-66
2021/07/28 11:54:06;;;;;;;6.47;3.50;;;;;;;;;;4905190;29;20507;-66
2021/07/28 11:56:33;;;;;;;3.95;3.55;;;;;;;;;;4901643;29;20056;-65
2021/07/28 11:59:00;;;;;;;7.65;3.80;;;;;;;;;;4907751;29;20139;-66
2021/07/28 12:01:31;;;;;;;4.90;3.38;;;;;;;;;;4909165;29;20130;-66
2021/07/28 12:04:05;;;;;;;5.53;3.93;;;;;;;;;;4905886;29;20464;-66
2021/07/28 12:06:36;;;;;;;3.70;3.30;;;;;;;;;;4908339;29;20084;-66
2021/07/28 12:09:12;;;;;;;5.40;4.10;;;;;;;;;;4903748;29;20126;-65
2021/07/28 12:11:57;;;;;;;4.00;3.60;;;;;;;;;;4906036;29;20044;-66
2021/07/28 12:14:45;;;;;;;5.10;3.95;;;;;;;;;;4907009;29;20092;-66
2021/07/28 12:17:18;;;;;;;5.13;3.15;;;;;;;;;;4903835;29;20087;-66
2021/07/28 12:20:03;;;;;;;3.80;3.15;;;;;;;;;;4901170;29;20051;-66
2021/07/28 12:22:34;;;;;;;5.60;3.30;;;;;;;;;;4908384;29;20078;-66
2021/07/28 12:25:15;;;;;;;6.60;3.22;;;;;;;;;;4905353;29;20056;-66
2021/07/28 12:27:59;;;;;;;3.65;3.00;;;;;;;;;;4906694;29;20128;-66
2021/07/28 12:30:37;;;;;;;4.65;3.28;;;;;;;;;;4901803;29;20159;-66
2021/07/28 12:33:08;;;;;;;3.85;3.50;;;;;;;;;;4905950;29;20056;-66
2021/07/28 12:35:45;;;;;;;3.40;3.10;;;;;;;;;;4904097;29;20052;-66
2021/07/28 12:38:14;;;;;;;4.38;2.88;;;;;;;;;;4904538;29;20092;-66
2021/07/28 12:40:46;;;;;;;3.58;3.25;;;;;;;;;;4904817;29;20040;-70
2021/07/28 12:43:13;;;;;;;4.18;2.88;;;;;;;;;;4898403;29;20060;-67
2021/07/28 12:45:39;;;;;;;4.60;3.25;;;;;;;;;;4905036;29;20112;-67
2021/07/28 12:48:07;;;;;;;5.82;3.60;;;;;;;;;;4902893;29;20055;-66
2021/07/28 12:50:34;;;;;;;4.53;3.00;;;;;;;;;;4903874;29;20147;-66
2021/07/28 12:53:02;;;;;;;5.47;3.30;;;;;;;;;;4906416;29;20048;-66
2021/07/28 12:55:29;;;;;;;3.83;2.88;;;;;;;;;;4903388;29;20056;-68
2021/07/28 12:57:56;;;;;;;4.20;3.45;;;;;;;;;;4904817;29;20053;-69
2021/07/28 13:00:24;;;;;;;8.40;3.40;;;;;;;;;;4909723;29;20052;-69
2021/07/28 13:02:50;;;;;;;5.22;3.47;;;;;;;;;;4903028;29;20048;-67
2021/07/28 13:05:20;;;;;;;6.65;3.90;;;;;;;;;;4909002;29;20056;-65
2021/07/28 13:10:17;;;;;;;4.28;3.00;;;;;;;;;;4907645;29;20077;-65
2021/07/28 13:12:43;;;;;;;5.32;2.80;;;;;;;;;;4907723;29;20111;-74
2021/07/28 13:15:11;;;;;;;4.60;3.00;;;;;;;;;;4901078;29;20518;-74
2021/07/28 13:17:37;;;;;;;8.15;2.92;;;;;;;;;;4909226;29;20083;-71
2021/07/28 13:20:04;;;;;;;4.13;3.20;;;;;;;;;;4895098;29;20143;-68
2021/07/28 13:22:31;;;;;;;3.85;2.97;;;;;;;;;;4900587;29;20538;-72
2021/07/28 13:24:58;;;;;;;2.53;2.33;;;;;;;;;;4907418;29;20056;-71
2021/07/28 13:27:25;;;;;;;3.08;2.78;;;;;;;;;;4904749;29;20526;-71
2021/07/28 13:29:51;;;;;;;5.38;3.30;;;;;;;;;;4905283;29;20113;-69
2021/07/28 13:32:18;;;;;;;4.10;2.50;;;;;;;;;;4906108;29;20084;-72
2021/07/28 13:34:44;;;;;;;4.38;3.03;;;;;;;;;;4907403;29;20080;-71
2021/07/28 13:37:11;;;;;;;3.33;2.80;;;;;;;;;;4908421;29;20098;-70
2021/07/28 13:39:37;;;;;;;6.72;3.60;;;;;;;;;;4904341;29;20448;-71
2021/07/28 13:42:04;;;;;;;4.25;2.88;;;;;;;;;;4904931;29;20108;-74
2021/07/28 13:44:34;;;;;;;3.75;2.95;;;;;;;;;;4906475;29;20501;-72
2021/07/28 13:47:03;;;;;;;3.20;2.90;;;;;;;;;;4907175;29;20056;-75
2021/07/28 13:49:29;;;;;;;3.53;2.90;;;;;;;;;;4909831;29;20043;-74
2021/07/28 13:51:57;;;;;;;3.85;2.63;;;;;;;;;;4907135;29;20059;-71
2021/07/28 13:54:24;;;;;;;3.60;2.70;;;;;;;;;;4908939;29;20300;-72
2021/07/28 13:57:07;;;;;;;4.28;2.90;;;;;;;;;;4905993;29;20080;-71
2021/07/28 13:59:34;;;;;;;3.65;2.75;;;;;;;;;;4906715;29;20076;-70
2021/07/28 14:02:01;;;;;;;2.88;2.67;;;;;;;;;;4906729;29;20063;-70
2021/07/28 14:04:28;;;;;;;3.20;2.80;;;;;;;;;;4905831;29;20055;-71
2021/07/28 14:06:55;;;;;;;3.78;3.15;;;;;;;;;;4906131;29;20094;-69
2021/07/28 14:09:21;;;;;;;3.25;2.70;;;;;;;;;;4905949;29;20079;-69
2021/07/28 14:11:48;;;;;;;7.03;2.78;;;;;;;;;;4908958;29;20040;-72
2021/07/28 14:14:15;;;;;;;3.63;3.03;;;;;;;;;;4900405;29;20392;-77
2021/07/28 14:16:41;;;;;;;3.50;3.15;;;;;;;;;;4884988;29;20056;-67
2021/07/28 14:19:08;;;;;;;3.05;2.85;;;;;;;;;;4903539;29;20095;-66
2021/07/28 14:21:35;;;;;;;3.30;3.00;;;;;;;;;;4905536;29;20096;-69
2021/07/28 14:24:01;;;;;;;6.38;4.00;;;;;;;;;;4907752;29;20088;-71
2021/07/28 14:26:28;;;;;;;6.40;3.40;;;;;;;;;;4905461;29;20107;-69
2021/07/28 14:31:29;;;;;;;4.72;3.20;;;;;;;;;;4885781;29;20413;-73
2021/07/28 14:33:55;;;;;;;4.43;2.95;;;;;;;;;;4884891;29;20060;-74
2021/07/28 14:36:22;;;;;;;3.95;3.10;;;;;;;;;;4884458;29;20044;-74
2021/07/28 14:38:49;;;;;;;4.05;3.08;;;;;;;;;;4884527;29;20057;-74
2021/07/28 14:41:20;;;;;;;2.92;2.63;;;;;;;;;;4876398;29;20048;-73
2021/07/28 14:43:48;;;;;;;3.50;3.07;;;;;;;;;;4881879;29;20262;-74
2021/07/28 14:46:34;;;;;;;4.03;3.20;;;;;;;;;;4889957;29;20056;-73
2021/07/28 14:49:01;;;;;;;3.38;3.08;;;;;;;;;;4883300;29;20068;-77
2021/07/28 14:51:31;;;;;;;3.50;3.20;;;;;;;;;;4865051;29;20108;-73
2021/07/28 14:53:58;;;;;;;4.70;3.17;;;;;;;;;;4882058;29;20147;-73